Time,TemperatureF,DewpointF,PressureIn,WindDirection,WindDirectionDegrees,WindSpeedMPH,WindSpeedGustMPH,Humidity,HourlyPrecipIn,Conditions,Clouds,dailyrainin,SoftwareType,DateUTC
2013-03-21 00:08:00,35.0,28.0,29.85,North,360,4.0,-999.0,75,-99.99,,,0.00,weatherlink.com 1.10,2013-03-21 04:08:00,
2013-03-21 00:23:00,34.7,27.0,29.85,North,355,7.0,-999.0,74,-99.99,,,0.00,weatherlink.com 1.10,2013-03-21 04:23:00,
2013-03-21 00:38:00,34.6,27.0,29.85,North,5,5.0,-999.0,75,-99.99,,,0.00,weatherlink.com 1.10,2013-03-21 04:38:00,
2013-03-21 00:53:00,34.4,26.0,29.85,NNW,342,8.0,-999.0,70,-99.99,,,0.00,weatherlink.com 1.10,2013-03-21 04:53:00,
2013-03-21 01:08:00,34.2,26.0,29.84,NNE,15,2.0,-999.0,72,-99.99,,,0.00,weatherlink.com 1.10,2013-03-21 05:08:00,
2013-03-21 01:23:00,34.1,26.0,29.85,North,355,7.0,-999.0,73,-99.99,,,0.00,weatherlink.com 1.10,2013-03-21 05:23:00,
2013-03-21 01:38:00,34.0,26.0,29.84,North,9,4.0,-999.0,73,-99.99,,,0.00,weatherlink.com 1.10,2013-03-21 05:38:00,
2013-03-21 01:53:00,33.7,26.0,29.84,North,355,6.0,-999.0,72,-99.99,,,0.00,weatherlink.com 1.10,2013-03-21 05:53:00,
2013-03-21 02:08:00,33.6,25.0,29.84,NNE,17,6.0,-999.0,72,-99.99,,,0.00,weatherlink.com 1.10,2013-03-21 06:08:00,
2013-03-21 02:23:00,33.4,25.0,29.84,NNW,342,7.0,-999.0,71,-99.99,,,0.00,weatherlink.com 1.10,2013-03-21 06:23:00,
2013-03-21 02:38:00,33.1,24.0,29.84,North,355,6.0,-999.0,68,-99.99,,,0.00,weatherlink.com 1.10,2013-03-21 06:38:00,
2013-03-21 02:53:00,32.5,22.0,29.84,NNW,339,10.0,-999.0,65,-99.99,,,0.00,weatherlink.com 1.10,2013-03-21 06:53:00,
2013-03-21 03:08:00,32.4,22.0,29.83,NNW,336,11.0,-999.0,65,-99.99,,,0.00,weatherlink.com 1.10,2013-03-21 07:08:00,
2013-03-21 03:23:00,32.1,21.0,29.83,NNW,344,9.0,-999.0,64,-99.99,,,0.00,weatherlink.com 1.10,2013-03-21 07:23:00,
2013-03-21 03:38:00,31.9,20.0,29.82,NNW,334,11.0,-999.0,63,-99.99,,,0.00,weatherlink.com 1.10,2013-03-21 07:38:00,
2013-03-21 03:53:00,31.7,20.0,29.82,North,355,7.0,-999.0,62,-99.99,,,0.00,weatherlink.com 1.10,2013-03-21 07:53:00,
2013-03-21 04:08:00,31.3,20.0,29.82,NNW,331,7.0,-999.0,64,-99.99,,,0.00,weatherlink.com 1.10,2013-03-21 08:08:00,
2013-03-21 04:23:00,30.7,20.0,29.82,NNW,342,7.0,-999.0,65,-99.99,,,0.00,weatherlink.com 1.10,2013-03-21 08:23:00,
2013-03-21 04:38:00,30.3,21.0,29.82,NNW,348,7.0,-999.0,68,-99.99,,,0.00,weatherlink.com 1.10,2013-03-21 08:38:00,
2013-03-21 04:53:00,30.1,20.0,29.82,North,355,4.0,-999.0,67,-99.99,,,0.00,weatherlink.com 1.10,2013-03-21 08:53:00,
2013-03-21 05:08:00,29.6,20.0,29.82,North,355,2.0,-999.0,68,-99.99,,,0.00,weatherlink.com 1.10,2013-03-21 09:08:00,
2013-03-21 05:23:00,29.4,20.0,29.82,NNW,345,4.0,-999.0,68,-99.99,,,0.00,weatherlink.com 1.10,2013-03-21 09:23:00,
2013-03-21 05:38:00,29.1,19.0,29.82,NNE,13,5.0,-999.0,66,-99.99,,,0.00,weatherlink.com 1.10,2013-03-21 09:38:00,
2013-03-21 05:53:00,28.8,19.0,29.82,NNE,12,4.0,-999.0,67,-99.99,,,0.00,weatherlink.com 1.10,2013-03-21 09:53:00,
2013-03-21 06:08:00,28.6,19.0,29.83,NNW,340,6.0,-999.0,67,-99.99,,,0.00,weatherlink.com 1.10,2013-03-21 10:08:00,
2013-03-21 06:23:00,28.0,18.0,29.82,North,355,4.0,-999.0,67,-99.99,,,0.00,weatherlink.com 1.10,2013-03-21 10:23:00,
2013-03-21 06:38:00,27.8,18.0,29.83,North,5,3.0,-999.0,67,-99.99,,,0.00,weatherlink.com 1.10,2013-03-21 10:38:00,
2013-03-21 06:53:00,27.4,18.0,29.83,North,5,5.0,-999.0,69,-99.99,,,0.00,weatherlink.com 1.10,2013-03-21 10:53:00,
2013-03-21 07:08:00,27.4,18.0,29.84,North,360,4.0,-999.0,67,-99.99,,,0.00,weatherlink.com 1.10,2013-03-21 11:08:00,
2013-03-21 07:23:00,27.4,18.0,29.84,NNW,340,8.0,-999.0,68,-99.99,,,0.00,weatherlink.com 1.10,2013-03-21 11:23:00,
2013-03-21 07:38:00,26.9,21.0,29.85,NNE,15,7.0,-999.0,79,-99.99,,,0.00,weatherlink.com 1.10,2013-03-21 11:38:00,
2013-03-21 07:53:00,26.3,22.0,29.85,NNE,20,4.0,-999.0,85,-99.99,,,0.00,weatherlink.com 1.10,2013-03-21 11:53:00,
2013-03-21 08:08:00,26.3,22.0,29.84,NE,37,3.0,-999.0,84,-99.99,,,0.00,weatherlink.com 1.10,2013-03-21 12:08:00,
2013-03-21 08:23:00,26.6,22.0,29.85,NE,35,5.0,-999.0,81,-99.99,,,0.00,weatherlink.com 1.10,2013-03-21 12:23:00,
2013-03-21 08:38:00,27.4,20.0,29.84,North,360,4.0,-999.0,75,-99.99,,,0.00,weatherlink.com 1.10,2013-03-21 12:38:00,
2013-03-21 08:53:00,28.3,20.0,29.84,NNW,346,5.0,-999.0,71,-99.99,,,0.00,weatherlink.com 1.10,2013-03-21 12:53:00,
2013-03-21 09:07:00,27.8,18.0,29.84,NW,319,11.0,-999.0,67,-99.99,,,0.00,weatherlink.com 1.10,2013-03-21 13:07:00,
2013-03-21 09:22:00,27.5,19.0,29.84,West,279,11.0,-999.0,69,-99.99,,,0.00,weatherlink.com 1.10,2013-03-21 13:22:00,
2013-03-21 09:37:00,27.3,18.0,29.84,NW,317,6.0,-999.0,68,-99.99,,,0.00,weatherlink.com 1.10,2013-03-21 13:37:00,
2013-03-21 09:52:00,29.1,15.0,29.84,NW,317,9.0,-999.0,55,-99.99,,,0.00,weatherlink.com 1.10,2013-03-21 13:52:00,
2013-03-21 10:07:00,28.3,13.0,29.85,WNW,288,15.0,-999.0,53,-99.99,,,0.00,weatherlink.com 1.10,2013-03-21 14:07:00,
2013-03-21 10:23:00,28.5,14.0,29.85,WNW,292,13.0,-999.0,54,-99.99,,,0.00,weatherlink.com 1.10,2013-03-21 14:23:00,
2013-03-21 10:38:00,28.8,15.0,29.86,WNW,303,13.0,-999.0,56,-99.99,,,0.00,weatherlink.com 1.10,2013-03-21 14:38:00,
2013-03-21 10:53:00,28.8,14.0,29.85,West,273,12.0,-999.0,55,-99.99,,,0.00,weatherlink.com 1.10,2013-03-21 14:53:00,
2013-03-21 11:08:00,29.4,14.0,29.85,West,280,15.0,-999.0,53,-99.99,,,0.00,weatherlink.com 1.10,2013-03-21 15:08:00,
2013-03-21 11:23:00,29.9,13.0,29.85,NW,315,10.0,-999.0,50,-99.99,,,0.00,weatherlink.com 1.10,2013-03-21 15:23:00,
2013-03-21 11:38:00,30.0,13.0,29.85,WNW,286,15.0,-999.0,50,-99.99,,,0.00,weatherlink.com 1.10,2013-03-21 15:38:00,
2013-03-21 11:53:00,31.5,12.0,29.85,NW,323,9.0,-999.0,45,-99.99,,,0.00,weatherlink.com 1.10,2013-03-21 15:53:00,
2013-03-21 12:08:00,30.7,13.0,29.85,NW,320,12.0,-999.0,48,-99.99,,,0.00,weatherlink.com 1.10,2013-03-21 16:08:00,
2013-03-21 12:23:00,30.3,10.0,29.84,NW,317,14.0,-999.0,43,-99.99,,,0.00,weatherlink.com 1.10,2013-03-21 16:23:00,
2013-03-21 12:38:00,31.1,13.0,29.84,WNW,290,14.0,-999.0,47,-99.99,,,0.00,weatherlink.com 1.10,2013-03-21 16:38:00,
2013-03-21 12:53:00,30.3,12.0,29.85,NW,315,7.0,-999.0,47,-99.99,,,0.00,weatherlink.com 1.10,2013-03-21 16:53:00,
2013-03-21 13:08:00,29.6,12.0,29.84,NW,304,13.0,-999.0,49,-99.99,,,0.00,weatherlink.com 1.10,2013-03-21 17:08:00,
2013-03-21 13:23:00,30.0,13.0,29.84,NNW,336,14.0,-999.0,50,-99.99,,,0.00,weatherlink.com 1.10,2013-03-21 17:23:00,
2013-03-21 13:38:00,30.7,13.0,29.85,WNW,296,15.0,-999.0,48,-99.99,,,0.00,weatherlink.com 1.10,2013-03-21 17:38:00,
2013-03-21 13:53:00,31.3,13.0,29.84,WNW,296,11.0,-999.0,47,-99.99,,,0.00,weatherlink.com 1.10,2013-03-21 17:53:00,
2013-03-21 14:08:00,31.4,13.0,29.84,NW,310,15.0,-999.0,46,-99.99,,,0.00,weatherlink.com 1.10,2013-03-21 18:08:00,
2013-03-21 14:23:00,30.5,14.0,29.83,NW,319,12.0,-999.0,50,-99.99,,,0.00,weatherlink.com 1.10,2013-03-21 18:23:00,
2013-03-21 14:38:00,31.4,12.0,29.83,NW,317,14.0,-999.0,45,-99.99,,,0.00,weatherlink.com 1.10,2013-03-21 18:38:00,
2013-03-21 14:53:00,31.0,11.0,29.83,NW,307,14.0,-999.0,44,-99.99,,,0.00,weatherlink.com 1.10,2013-03-21 18:53:00,
2013-03-21 15:08:00,31.2,13.0,29.83,WNW,301,20.0,-999.0,48,-99.99,,,0.00,weatherlink.com 1.10,2013-03-21 19:08:00,
2013-03-21 15:23:00,31.6,14.0,29.83,WNW,297,12.0,-999.0,49,-99.99,,,0.00,weatherlink.com 1.10,2013-03-21 19:23:00,
2013-03-21 15:38:00,31.5,12.0,29.83,WNW,293,22.0,-999.0,44,-99.99,,,0.00,weatherlink.com 1.10,2013-03-21 19:38:00,
2013-03-21 15:53:00,31.8,13.0,29.83,WNW,293,13.0,-999.0,46,-99.99,,,0.00,weatherlink.com 1.10,2013-03-21 19:53:00,
2013-03-21 16:08:00,31.5,13.0,29.84,WNW,295,22.0,-999.0,46,-99.99,,,0.00,weatherlink.com 1.10,2013-03-21 20:08:00,
2013-03-21 16:23:00,30.8,13.0,29.84,WNW,298,22.0,-999.0,47,-99.99,,,0.00,weatherlink.com 1.10,2013-03-21 20:23:00,
2013-03-21 16:38:00,30.1,13.0,29.85,NW,313,15.0,-999.0,50,-99.99,,,0.00,weatherlink.com 1.10,2013-03-21 20:38:00,
2013-03-21 16:53:00,31.0,13.0,29.85,NNW,336,19.0,-999.0,48,-99.99,,,0.00,weatherlink.com 1.10,2013-03-21 20:53:00,
2013-03-21 17:08:00,31.5,12.0,29.86,NW,324,17.0,-999.0,45,-99.99,,,0.00,weatherlink.com 1.10,2013-03-21 21:08:00,
2013-03-21 17:23:00,30.9,11.0,29.86,WNW,297,18.0,-999.0,44,-99.99,,,0.00,weatherlink.com 1.10,2013-03-21 21:23:00,
2013-03-21 17:38:00,30.5,11.0,29.86,NW,319,9.0,-999.0,45,-99.99,,,0.00,weatherlink.com 1.10,2013-03-21 21:38:00,
2013-03-21 17:53:00,31.0,12.0,29.86,NW,320,15.0,-999.0,45,-99.99,,,0.00,weatherlink.com 1.10,2013-03-21 21:53:00,
2013-03-21 19:55:00,28.7,11.0,29.91,NW,315,14.0,-999.0,48,-99.99,,,0.00,weatherlink.com 1.10,2013-03-21 23:55:00,
2013-03-21 20:08:00,28.6,12.0,29.91,NW,317,13.0,-999.0,49,-99.99,,,0.00,weatherlink.com 1.10,2013-03-22 00:08:00,
2013-03-21 20:23:00,28.4,10.0,29.93,NW,316,12.0,-999.0,46,-99.99,,,0.00,weatherlink.com 1.10,2013-03-22 00:23:00,
2013-03-21 20:38:00,28.0,10.0,29.93,NW,319,9.0,-999.0,48,-99.99,,,0.00,weatherlink.com 1.10,2013-03-22 00:38:00,
2013-03-21 20:53:00,27.9,11.0,29.93,NW,321,8.0,-999.0,49,-99.99,,,0.00,weatherlink.com 1.10,2013-03-22 00:53:00,
2013-03-21 21:08:00,27.4,11.0,29.94,NNW,331,9.0,-999.0,51,-99.99,,,0.00,weatherlink.com 1.10,2013-03-22 01:08:00,
2013-03-21 21:23:00,27.2,12.0,29.95,NW,325,9.0,-999.0,52,-99.99,,,0.00,weatherlink.com 1.10,2013-03-22 01:23:00,
2013-03-21 21:38:00,27.1,12.0,29.96,NW,321,4.0,-999.0,53,-99.99,,,0.00,weatherlink.com 1.10,2013-03-22 01:38:00,
2013-03-21 21:53:00,26.7,12.0,29.96,NW,315,4.0,-999.0,53,-99.99,,,0.00,weatherlink.com 1.10,2013-03-22 01:53:00,
2013-03-21 22:08:00,25.9,12.0,29.96,NW,315,2.0,-999.0,57,-99.99,,,0.00,weatherlink.com 1.10,2013-03-22 02:08:00,
2013-03-21 22:23:00,24.9,13.0,29.96,NW,309,2.0,-999.0,60,-99.99,,,0.00,weatherlink.com 1.10,2013-03-22 02:23:00,
2013-03-21 22:38:00,25.2,12.0,29.96,West,267,5.0,-999.0,57,-99.99,,,0.00,weatherlink.com 1.10,2013-03-22 02:38:00,
2013-03-21 22:53:00,25.4,12.0,29.97,West,267,1.0,-999.0,57,-99.99,,,0.00,weatherlink.com 1.10,2013-03-22 02:53:00,
2013-03-21 23:08:00,24.9,13.0,29.97,West,267,3.0,-999.0,61,-99.99,,,0.00,weatherlink.com 1.10,2013-03-22 03:08:00,
2013-03-21 23:23:00,24.1,13.0,29.98,West,267,1.0,-999.0,64,-99.99,,,0.00,weatherlink.com 1.10,2013-03-22 03:23:00,
2013-03-21 23:38:00,23.6,14.0,29.98,West,267,3.0,-999.0,66,-99.99,,,0.00,weatherlink.com 1.10,2013-03-22 03:38:00,
2013-03-21 23:53:00,23.9,14.0,29.98,West,267,0.0,-999.0,67,-99.99,,,0.00,weatherlink.com 1.10,2013-03-22 03:53:00,